Time;durP1;ratioP1;P1;durP2;ratioP2;P2;SDS_P1;SDS_P2;PMS_P1;PMS_P2;Temp;Humidity;BMP_temperature;BMP_pressure;BME280_temperature;BME280_humidity;BME280_pressure;Samples;Min_cycle;Max_cycle;Signal;HPM_P1;HPM_P2
2021/04/23 00:01:06;;;;;;;11.03;4.10;;;;;;;;;;4330835;33;20178;-73
2021/04/23 00:06:52;;;;;;;13.97;4.20;;;;;;;;;;4330673;33;20214;-72
2021/04/23 00:09:25;;;;;;;13.37;4.10;;;;;;;;;;4330732;33;20160;-72
2021/04/23 00:12:17;;;;;;;9.90;4.17;;;;;;;;;;4331472;33;20212;-72
2021/04/23 00:15:20;;;;;;;13.13;4.60;;;;;;;;;;4328630;33;20155;-72
2021/04/23 00:17:51;;;;;;;8.27;3.90;;;;;;;;;;4348483;32;20193;-72
2021/04/23 00:20:52;;;;;;;9.27;3.90;;;;;;;;;;4362611;32;20140;-72
2021/04/23 00:23:56;;;;;;;;;;;;;;;;;;;;;
2021/04/23 00:33:25;;;;;;;12.63;4.30;;;;;;;;;;4256892;33;20195;-72
2021/04/23 00:35:51;;;;;;;15.17;4.67;;;;;;;;;;4269713;33;20177;-72
2021/04/23 00:38:28;;;;;;;8.73;4.03;;;;;;;;;;4366476;32;20150;-72
2021/04/23 00:41:21;;;;;;;12.00;4.07;;;;;;;;;;4372924;32;20166;-72
2021/04/23 00:44:10;;;;;;;12.97;4.17;;;;;;;;;;4361960;33;20151;-72
2021/04/23 00:47:04;;;;;;;9.50;3.80;;;;;;;;;;4361951;33;20225;-72
2021/04/23 00:49:29;;;;;;;10.30;4.43;;;;;;;;;;4313641;33;20231;-72
2021/04/23 00:51:59;;;;;;;10.23;4.10;;;;;;;;;;4308602;33;20202;-72
2021/04/23 00:54:28;;;;;;;12.63;4.77;;;;;;;;;;4327145;33;20206;-72
2021/04/23 00:56:59;;;;;;;10.40;3.90;;;;;;;;;;4347020;33;20159;-72
2021/04/23 00:59:27;;;;;;;10.43;4.37;;;;;;;;;;4347571;33;20175;-72
2021/04/23 01:01:55;;;;;;;14.27;4.30;;;;;;;;;;4347216;33;20529;-71
2021/04/23 01:04:31;;;;;;;12.80;3.87;;;;;;;;;;4346471;33;20615;-72
2021/04/23 01:06:59;;;;;;;11.20;4.10;;;;;;;;;;4346686;33;20601;-72
2021/04/23 01:09:43;;;;;;;;;;;;;;;;;;;;;
2021/04/23 01:15:30;;;;;;;11.23;4.43;;;;;;;;;;4338691;33;20274;-72
2021/04/23 01:18:08;;;;;;;10.90;4.07;;;;;;;;;;4346810;33;20171;-72
2021/04/23 01:20:34;;;;;;;13.27;4.60;;;;;;;;;;4347089;33;20185;-72
2021/04/23 01:25:55;;;;;;;10.60;4.00;;;;;;;;;;4358148;33;20159;-72
2021/04/23 01:28:32;;;;;;;12.77;4.50;;;;;;;;;;4361773;32;20139;-72
2021/04/23 01:34:07;;;;;;;13.40;3.93;;;;;;;;;;4361070;32;20154;-72
2021/04/23 01:37:01;;;;;;;10.87;4.10;;;;;;;;;;4360636;32;20582;-72
2021/04/23 01:39:40;;;;;;;11.73;4.47;;;;;;;;;;4315101;33;20595;-72
2021/04/23 01:42:37;;;;;;;13.17;4.50;;;;;;;;;;4314884;33;20587;-73
2021/04/23 01:48:32;;;;;;;10.87;4.40;;;;;;;;;;4257847;33;20229;-72
2021/04/23 01:50:57;;;;;;;10.90;3.80;;;;;;;;;;4295504;32;20176;-72
2021/04/23 01:59:32;;;;;;;10.47;3.70;;;;;;;;;;4305064;33;20197;-72
2021/04/23 02:02:21;;;;;;;;;;;;;;;;;;;;;
2021/04/23 02:07:44;;;;;;;11.83;4.60;;;;;;;;;;4348266;33;20240;-72
2021/04/23 02:10:51;;;;;;;14.73;3.93;;;;;;;;;;4361184;32;20158;-72
2021/04/23 02:13:46;;;;;;;10.57;3.97;;;;;;;;;;4299769;33;20407;-72
2021/04/23 02:16:25;;;;;;;11.63;5.20;;;;;;;;;;4311910;33;20222;-72
2021/04/23 02:18:51;;;;;;;11.93;3.73;;;;;;;;;;4360057;32;20718;-72
2021/04/23 02:21:16;;;;;;;12.87;4.10;;;;;;;;;;4375297;32;20142;-72
2021/04/23 02:23:48;;;;;;;10.03;3.80;;;;;;;;;;4374956;32;20192;-72
2021/04/23 02:26:14;;;;;;;12.20;4.10;;;;;;;;;;4365179;32;20631;-72
2021/04/23 02:28:50;;;;;;;16.33;4.23;;;;;;;;;;4360419;32;20597;-72
2021/04/23 02:31:26;;;;;;;11.43;4.00;;;;;;;;;;4360626;32;20166;-72
2021/04/23 02:34:17;;;;;;;;;;;;;;;;;;;;;
2021/04/23 02:37:13;;;;;;;;;;;;;;;;;;;;;
2021/04/23 02:39:41;;;;;;;13.67;4.63;;;;;;;;;;4360509;32;20560;-72
2021/04/23 02:42:23;;;;;;;14.70;4.30;;;;;;;;;;4359773;33;20252;-73
2021/04/23 02:45:10;;;;;;;12.80;4.17;;;;;;;;;;4359258;33;20208;-71
2021/04/23 02:47:38;;;;;;;13.60;3.97;;;;;;;;;;4360222;32;20175;-72
2021/04/23 02:53:27;;;;;;;9.00;4.37;;;;;;;;;;4351726;33;20581;-72
2021/04/23 02:55:48;;;;;;;13.20;4.37;;;;;;;;;;4357286;33;20542;-72
2021/04/23 02:58:20;;;;;;;13.30;4.87;;;;;;;;;;4359248;33;20190;-71
2021/04/23 03:00:47;;;;;;;14.80;4.33;;;;;;;;;;4360332;33;20229;-72
2021/04/23 03:03:15;;;;;;;19.93;4.47;;;;;;;;;;4360153;33;20143;-71
2021/04/23 03:05:42;;;;;;;11.53;4.10;;;;;;;;;;4369521;32;20250;-71
2021/04/23 03:08:11;;;;;;;13.07;4.40;;;;;;;;;;4375280;32;20169;-72
2021/04/23 03:10:48;;;;;;;15.87;4.80;;;;;;;;;;4375137;32;20162;-73
2021/04/23 03:13:15;;;;;;;10.57;4.00;;;;;;;;;;4375400;32;20142;-72
2021/04/23 03:15:54;;;;;;;13.00;4.87;;;;;;;;;;4361295;32;20163;-72
2021/04/23 03:18:21;;;;;;;12.67;4.40;;;;;;;;;;4374717;32;20158;-72
2021/04/23 03:20:53;;;;;;;12.53;4.63;;;;;;;;;;4374755;32;20166;-72
2021/04/23 03:23:31;;;;;;;;;;;;;;;;;;;;;
2021/04/23 03:26:04;;;;;;;10.10;3.90;;;;;;;;;;4298434;33;20215;-73
2021/04/23 03:28:30;;;;;;;11.73;4.73;;;;;;;;;;4375031;32;20575;-72
2021/04/23 03:30:58;;;;;;;14.47;4.50;;;;;;;;;;4374838;32;20216;-73
2021/04/23 03:33:23;;;;;;;9.20;4.00;;;;;;;;;;4374541;32;20205;-72
2021/04/23 03:35:59;;;;;;;9.40;4.40;;;;;;;;;;4374970;32;20545;-72
2021/04/23 03:38:35;;;;;;;14.60;4.30;;;;;;;;;;4375498;32;20154;-72
2021/04/23 03:41:46;;;;;;;;;;;;;;;;;;;;;
2021/04/23 03:44:54;;;;;;;;;;;;;;;;;;;;;
2021/04/23 03:54:05;;;;;;;11.80;4.97;;;;;;;;;;4299244;33;20200;-72
2021/04/23 03:59:52;;;;;;;;;;;;;;;;;;;;;
2021/04/23 04:05:30;;;;;;;16.37;5.03;;;;;;;;;;4253614;33;20177;-71
2021/04/23 04:08:00;;;;;;;13.20;4.87;;;;;;;;;;4300075;33;20215;-71
2021/04/23 04:10:36;;;;;;;;;;;;;;;;;;;;;
2021/04/23 04:13:05;;;;;;;17.43;4.60;;;;;;;;;;4347851;33;20147;-71
2021/04/23 04:15:50;;;;;;;13.13;4.40;;;;;;;;;;4347509;33;20136;-71
2021/04/23 04:18:16;;;;;;;10.33;4.67;;;;;;;;;;4346843;33;20241;-72
2021/04/23 04:21:08;;;;;;;22.63;5.10;;;;;;;;;;4347501;33;20144;-72
2021/04/23 04:23:49;;;;;;;15.93;4.60;;;;;;;;;;4345040;33;20156;-71
2021/04/23 04:26:20;;;;;;;15.07;5.30;;;;;;;;;;4348026;33;20155;-71
2021/04/23 04:29:18;;;;;;;12.13;4.90;;;;;;;;;;4346966;33;20198;-71
2021/04/23 04:31:40;;;;;;;14.50;4.60;;;;;;;;;;4347092;33;20168;-71
2021/04/23 04:34:05;;;;;;;18.40;5.07;;;;;;;;;;4347360;33;20166;-73
2021/04/23 04:36:33;;;;;;;15.20;5.00;;;;;;;;;;4333855;33;20190;-73
2021/04/23 04:39:28;;;;;;;18.97;4.97;;;;;;;;;;4334237;33;20226;-73
2021/04/23 04:41:53;;;;;;;16.30;5.83;;;;;;;;;;4331775;33;20167;-72
2021/04/23 04:45:00;;;;;;;18.07;5.23;;;;;;;;;;4344960;33;20234;-71
2021/04/23 04:47:29;;;;;;;17.17;5.37;;;;;;;;;;4335255;33;20233;-72
2021/04/23 04:50:38;;;;;;;12.60;4.87;;;;;;;;;;4345673;33;20209;-72
2021/04/23 04:53:46;;;;;;;16.87;4.80;;;;;;;;;;4345431;33;20179;-72
2021/04/23 04:56:12;;;;;;;8.20;4.10;;;;;;;;;;4315458;33;20176;-72
2021/04/23 04:58:54;;;;;;;15.27;4.83;;;;;;;;;;4329061;33;20211;-72
2021/04/23 05:01:31;;;;;;;19.33;7.03;;;;;;;;;;4333475;33;20175;-71
2021/04/23 05:04:02;;;;;;;18.60;5.40;;;;;;;;;;4345784;33;20179;-72
2021/04/23 05:06:27;;;;;;;19.00;4.83;;;;;;;;;;4345215;33;20179;-71
2021/04/23 05:08:52;;;;;;;14.07;4.60;;;;;;;;;;4360226;32;20174;-72
2021/04/23 05:11:20;;;;;;;16.70;5.33;;;;;;;;;;4359962;32;20186;-72
2021/04/23 05:13:58;;;;;;;15.60;4.63;;;;;;;;;;4348299;33;20198;-71
2021/04/23 05:16:29;;;;;;;11.20;5.77;;;;;;;;;;4360469;32;20163;-73
2021/04/23 05:19:07;;;;;;;;;;;;;;;;;;;;;
2021/04/23 05:21:33;;;;;;;15.97;4.13;;;;;;;;;;4361650;33;20139;-73
2021/04/23 05:24:01;;;;;;;14.80;4.80;;;;;;;;;;4361369;32;20493;-71
2021/04/23 05:26:31;;;;;;;18.13;5.17;;;;;;;;;;4361210;32;20229;-71
2021/04/23 05:28:57;;;;;;;16.80;5.13;;;;;;;;;;4360188;32;20224;-71
2021/04/23 05:31:42;;;;;;;12.23;4.90;;;;;;;;;;4360910;32;20144;-73
2021/04/23 05:34:08;;;;;;;15.07;4.40;;;;;;;;;;4359325;33;20190;-71
2021/04/23 05:36:54;;;;;;;14.77;5.20;;;;;;;;;;4360440;32;20464;-72
2021/04/23 05:39:42;;;;;;;13.17;4.10;;;;;;;;;;4372479;32;20186;-71
2021/04/23 05:42:17;;;;;;;11.83;4.60;;;;;;;;;;4356064;33;20504;-72
2021/04/23 05:45:15;;;;;;;;;;;;;;;;;;;;;
2021/04/23 05:48:02;;;;;;;15.60;5.23;;;;;;;;;;4356826;32;20182;-71
2021/04/23 05:50:41;;;;;;;12.83;4.83;;;;;;;;;;4359684;32;20175;-71
2021/04/23 05:53:09;;;;;;;14.70;4.77;;;;;;;;;;4358010;32;20224;-72
2021/04/23 05:55:35;;;;;;;17.63;4.47;;;;;;;;;;4359524;33;20213;-64
2021/04/23 05:58:02;;;;;;;14.37;4.40;;;;;;;;;;4360081;33;20463;-71
2021/04/23 06:00:28;;;;;;;14.27;4.80;;;;;;;;;;4359025;32;20221;-70
2021/04/23 06:02:55;;;;;;;12.57;4.37;;;;;;;;;;4360300;32;20182;-70
2021/04/23 06:05:27;;;;;;;14.73;4.30;;;;;;;;;;4359153;32;20168;-70
2021/04/23 06:08:14;;;;;;;14.70;4.13;;;;;;;;;;4346759;33;20173;-70
2021/04/23 06:10:43;;;;;;;9.30;3.70;;;;;;;;;;4339551;33;21005;-71
2021/04/23 06:13:09;;;;;;;17.67;4.63;;;;;;;;;;4329282;33;20230;-68
2021/04/23 06:15:34;;;;;;;13.07;4.00;;;;;;;;;;4352108;33;20139;-70
2021/04/23 06:18:00;;;;;;;14.70;3.73;;;;;;;;;;4359348;32;20591;-71
2021/04/23 06:20:27;;;;;;;16.77;4.40;;;;;;;;;;4344268;33;20186;-71
2021/04/23 06:22:56;;;;;;;15.77;4.27;;;;;;;;;;4345245;32;20214;-70
2021/04/23 06:25:30;;;;;;;14.40;4.00;;;;;;;;;;4360493;32;20136;-70
2021/04/23 06:28:13;;;;;;;9.70;3.73;;;;;;;;;;4360102;32;20158;-71
2021/04/23 06:30:39;;;;;;;13.53;4.30;;;;;;;;;;4344961;33;20140;-69
2021/04/23 06:33:11;;;;;;;14.53;4.70;;;;;;;;;;4344012;33;20513;-70
2021/04/23 06:35:37;;;;;;;15.50;4.47;;;;;;;;;;4345103;33;20150;-69
2021/04/23 06:38:11;;;;;;;12.53;4.40;;;;;;;;;;4347133;33;20143;-70
2021/04/23 06:40:37;;;;;;;18.13;4.97;;;;;;;;;;4350982;33;20147;-71
2021/04/23 06:43:13;;;;;;;;;;;;;;;;;;;;;
2021/04/23 06:45:38;;;;;;;15.23;4.60;;;;;;;;;;4345147;33;20143;-71
2021/04/23 06:48:04;;;;;;;14.03;5.00;;;;;;;;;;4344590;33;20174;-70
2021/04/23 06:50:29;;;;;;;21.77;5.53;;;;;;;;;;4345130;33;20656;-73
2021/04/23 06:52:55;;;;;;;13.73;5.40;;;;;;;;;;4359817;32;20189;-72
2021/04/23 06:55:30;;;;;;;13.23;5.07;;;;;;;;;;4358503;33;20135;-70
2021/04/23 06:57:56;;;;;;;10.70;4.47;;;;;;;;;;4344946;33;20252;-70
2021/04/23 07:00:23;;;;;;;12.60;4.97;;;;;;;;;;4345020;33;20178;-71
2021/04/23 07:02:49;;;;;;;16.00;5.23;;;;;;;;;;4343608;33;20194;-67
2021/04/23 07:05:14;;;;;;;19.33;5.37;;;;;;;;;;4344758;33;20151;-71
2021/04/23 07:07:40;;;;;;;12.03;4.97;;;;;;;;;;4353154;33;20459;-72
2021/04/23 07:10:06;;;;;;;15.50;5.07;;;;;;;;;;4359736;33;20170;-71
2021/04/23 07:12:31;;;;;;;11.97;3.80;;;;;;;;;;4359980;33;20242;-71
2021/04/23 07:15:00;;;;;;;15.37;4.50;;;;;;;;;;4358733;32;20151;-72
2021/04/23 07:17:31;;;;;;;9.10;4.20;;;;;;;;;;4359415;33;20173;-72
2021/04/23 07:20:04;;;;;;;9.13;3.60;;;;;;;;;;4359899;33;20182;-73
2021/04/23 07:22:29;;;;;;;10.33;4.20;;;;;;;;;;4359550;33;20201;-72
2021/04/23 07:24:55;;;;;;;13.43;4.43;;;;;;;;;;4359309;33;20179;-72
2021/04/23 07:27:23;;;;;;;11.93;3.70;;;;;;;;;;4359595;33;20136;-71
2021/04/23 07:30:07;;;;;;;;;;;;;;;;;;;;;
2021/04/23 07:33:14;;;;;;;10.20;3.70;;;;;;;;;;4359944;33;20565;-71
2021/04/23 07:35:58;;;;;;;8.33;3.43;;;;;;;;;;4314423;33;20179;-71
2021/04/23 07:38:44;;;;;;;13.60;3.90;;;;;;;;;;4316478;33;20162;-71
2021/04/23 07:41:13;;;;;;;10.37;4.10;;;;;;;;;;4331447;33;20197;-71
2021/04/23 07:43:38;;;;;;;11.83;3.80;;;;;;;;;;4346806;33;20573;-72
2021/04/23 07:46:03;;;;;;;10.13;3.53;;;;;;;;;;4346371;33;20218;-70
2021/04/23 07:48:29;;;;;;;12.23;3.90;;;;;;;;;;4347160;33;20136;-73
2021/04/23 07:51:02;;;;;;;12.40;3.77;;;;;;;;;;4347523;33;20170;-72
2021/04/23 07:53:30;;;;;;;12.43;4.70;;;;;;;;;;4348016;33;20624;-71
2021/04/23 07:55:58;;;;;;;11.20;4.10;;;;;;;;;;4346292;33;20275;-71
2021/04/23 07:58:24;;;;;;;11.90;4.50;;;;;;;;;;4347630;33;20160;-73
2021/04/23 08:00:49;;;;;;;16.93;4.20;;;;;;;;;;4347519;33;20240;-70
2021/04/23 08:03:14;;;;;;;12.67;4.37;;;;;;;;;;4347424;33;20197;-72
2021/04/23 08:05:42;;;;;;;14.50;4.70;;;;;;;;;;4347519;33;20148;-72
2021/04/23 08:14:28;;;;;;;16.33;4.90;;;;;;;;;;4347395;33;20211;-73
2021/04/23 08:16:53;;;;;;;13.27;4.10;;;;;;;;;;4347062;33;20194;-70
2021/04/23 08:19:19;;;;;;;14.03;4.30;;;;;;;;;;4346902;33;20139;-70
2021/04/23 08:21:44;;;;;;;17.27;4.27;;;;;;;;;;4348128;33;20198;-69
2021/04/23 08:24:17;;;;;;;13.33;4.10;;;;;;;;;;4347845;33;20135;-71
2021/04/23 08:26:43;;;;;;;10.73;3.90;;;;;;;;;;4345626;33;20156;-72
2021/04/23 08:29:11;;;;;;;14.60;4.00;;;;;;;;;;4346855;33;20205;-72
2021/04/23 08:31:41;;;;;;;13.67;4.40;;;;;;;;;;4347644;33;20147;-72
2021/04/23 08:34:06;;;;;;;11.83;4.37;;;;;;;;;;4347056;33;20176;-72
2021/04/23 08:36:34;;;;;;;14.67;4.80;;;;;;;;;;4347752;33;20230;-71
2021/04/23 08:38:59;;;;;;;12.23;4.30;;;;;;;;;;4347416;33;20135;-72
2021/04/23 08:41:25;;;;;;;10.87;4.83;;;;;;;;;;4333379;33;20678;-72
2021/04/23 08:43:51;;;;;;;12.83;5.17;;;;;;;;;;4345944;33;20164;-71
2021/04/23 08:46:16;;;;;;;8.93;4.07;;;;;;;;;;4345867;33;20190;-71
2021/04/23 08:48:42;;;;;;;15.20;4.80;;;;;;;;;;4346633;33;20143;-70
2021/04/23 08:51:08;;;;;;;12.40;4.17;;;;;;;;;;4347708;33;20175;-70
2021/04/23 08:53:33;;;;;;;16.73;4.70;;;;;;;;;;4346661;33;20159;-68
2021/04/23 08:55:59;;;;;;;14.47;4.10;;;;;;;;;;4346654;33;20317;-72
2021/04/23 08:58:24;;;;;;;8.13;3.80;;;;;;;;;;4345350;33;20167;-71
2021/04/23 09:00:50;;;;;;;9.90;4.53;;;;;;;;;;4345005;32;20186;-71
2021/04/23 09:03:19;;;;;;;11.87;4.20;;;;;;;;;;4346734;33;20178;-72
2021/04/23 09:06:04;;;;;;;10.97;4.50;;;;;;;;;;4346058;33;20250;-72
2021/04/23 09:08:29;;;;;;;8.13;4.00;;;;;;;;;;4340957;33;20171;-71
2021/04/23 09:10:57;;;;;;;9.30;4.20;;;;;;;;;;4346025;33;20209;-69
2021/04/23 09:13:25;;;;;;;19.87;4.50;;;;;;;;;;4346392;33;20139;-71
2021/04/23 09:15:54;;;;;;;11.67;4.10;;;;;;;;;;4346521;33;20136;-68
2021/04/23 09:18:21;;;;;;;11.57;4.80;;;;;;;;;;4346498;33;20135;-71
2021/04/23 09:20:48;;;;;;;16.60;4.93;;;;;;;;;;4346032;33;20135;-73
2021/04/23 09:23:17;;;;;;;10.65;3.85;;;;;;;;;;4344649;33;20242;-71
2021/04/23 09:25:47;;;;;;;12.97;4.23;;;;;;;;;;4346308;33;20217;-72
2021/04/23 09:28:16;;;;;;;16.40;4.00;;;;;;;;;;4332941;33;20215;-73
2021/04/23 09:30:57;;;;;;;13.47;4.37;;;;;;;;;;4346471;33;20501;-73
2021/04/23 09:33:26;;;;;;;13.02;3.78;;;;;;;;;;4346282;33;20173;-72
2021/04/23 09:36:00;;;;;;;10.90;4.00;;;;;;;;;;4346084;33;20136;-71
2021/04/23 09:38:25;;;;;;;12.82;3.85;;;;;;;;;;4346222;33;20155;-72
2021/04/23 09:40:50;;;;;;;11.97;4.20;;;;;;;;;;4346651;33;20514;-73
2021/04/23 09:43:16;;;;;;;9.90;3.80;;;;;;;;;;4346240;33;20178;-72
2021/04/23 09:45:51;;;;;;;11.45;3.95;;;;;;;;;;4345794;33;20271;-72
2021/04/23 09:48:18;;;;;;;10.73;3.55;;;;;;;;;;4344895;33;20506;-70
2021/04/23 09:50:43;;;;;;;9.57;3.70;;;;;;;;;;4345808;33;20549;-73
2021/04/23 09:53:09;;;;;;;7.62;3.28;;;;;;;;;;4345656;33;20158;-73
2021/04/23 09:55:37;;;;;;;9.70;3.70;;;;;;;;;;4345560;33;20155;-73
2021/04/23 09:58:28;;;;;;;11.35;3.67;;;;;;;;;;4345039;33;20206;-72
2021/04/23 10:01:02;;;;;;;9.75;3.65;;;;;;;;;;4344986;33;20147;-71
2021/04/23 10:03:33;;;;;;;11.43;3.53;;;;;;;;;;4346011;33;20183;-72
2021/04/23 10:06:21;;;;;;;10.13;3.22;;;;;;;;;;4345645;33;20239;-72
2021/04/23 10:08:47;;;;;;;10.80;3.30;;;;;;;;;;4345807;33;20155;-72
2021/04/23 10:11:12;;;;;;;11.00;3.50;;;;;;;;;;4346008;33;20123;-70
2021/04/23 10:13:38;;;;;;;10.30;3.53;;;;;;;;;;4344731;33;20139;-71
2021/04/23 10:16:04;;;;;;;6.53;3.17;;;;;;;;;;4345451;33;20131;-69
2021/04/23 10:18:38;;;;;;;11.20;3.30;;;;;;;;;;4345091;33;20127;-72
2021/04/23 10:21:04;;;;;;;11.65;3.80;;;;;;;;;;4345198;33;20150;-69
2021/04/23 10:23:29;;;;;;;7.95;3.42;;;;;;;;;;4345316;33;20538;-72
2021/04/23 10:25:54;;;;;;;8.13;3.40;;;;;;;;;;4349520;33;20151;-71
2021/04/23 10:31:11;;;;;;;10.35;3.58;;;;;;;;;;4363405;32;20168;-73
2021/04/23 10:33:45;;;;;;;8.32;3.30;;;;;;;;;;4351376;32;20245;-72
2021/04/23 10:36:10;;;;;;;9.77;3.60;;;;;;;;;;4345540;33;20146;-72
2021/04/23 10:38:40;;;;;;;10.02;3.78;;;;;;;;;;4345033;33;20178;-73
2021/04/23 10:41:10;;;;;;;9.95;3.37;;;;;;;;;;4360386;32;20197;-71
2021/04/23 10:43:53;;;;;;;11.65;3.33;;;;;;;;;;4371311;32;20179;-72
2021/04/23 10:46:20;;;;;;;8.98;3.25;;;;;;;;;;4360395;32;20611;-73
2021/04/23 10:48:47;;;;;;;13.52;4.00;;;;;;;;;;4346049;33;20194;-73
2021/04/23 10:51:32;;;;;;;12.07;4.03;;;;;;;;;;4357853;33;20205;-71
2021/04/23 11:00:29;;;;;;;12.07;3.47;;;;;;;;;;4343499;33;20204;-73
2021/04/23 11:03:13;;;;;;;13.35;4.15;;;;;;;;;;4341620;33;20147;-72
2021/04/23 11:05:41;;;;;;;17.95;4.60;;;;;;;;;;4339793;32;20191;-72
2021/04/23 11:08:17;;;;;;;10.48;3.97;;;;;;;;;;4347498;33;20224;-66
2021/04/23 11:11:13;;;;;;;10.13;3.78;;;;;;;;;;4345718;33;20461;-72
2021/04/23 11:13:42;;;;;;;11.80;3.83;;;;;;;;;;4362648;32;20201;-73
2021/04/23 11:16:30;;;;;;;12.25;3.65;;;;;;;;;;4362423;32;20182;-73
2021/04/23 11:19:14;;;;;;;12.15;3.65;;;;;;;;;;4362626;32;20217;-73
2021/04/23 11:21:40;;;;;;;10.93;3.40;;;;;;;;;;4348874;33;20186;-73
2021/04/23 11:24:25;;;;;;;9.32;3.20;;;;;;;;;;4359307;32;20292;-72
2021/04/23 11:30:45;;;;;;;8.57;3.42;;;;;;;;;;4359603;32;20143;-70
2021/04/23 11:32:55;;;;;;;6.60;3.10;;;;;;;;;;4344119;33;20230;-72
2021/04/23 11:35:26;;;;;;;7.90;3.25;;;;;;;;;;4356482;33;20587;-72
2021/04/23 11:38:12;;;;;;;8.57;3.47;;;;;;;;;;4348468;33;20182;-73
2021/04/23 11:40:40;;;;;;;15.85;3.87;;;;;;;;;;4298817;33;20270;-75
2021/04/23 11:43:06;;;;;;;6.93;3.58;;;;;;;;;;4337988;33;20217;-72
2021/04/23 11:45:36;;;;;;;7.75;3.35;;;;;;;;;;4350790;33;20147;-67
2021/04/23 11:48:13;;;;;;;8.93;3.67;;;;;;;;;;4347435;33;20120;-72
2021/04/23 11:50:48;;;;;;;7.45;3.42;;;;;;;;;;4341753;33;20162;-73
2021/04/23 11:53:23;;;;;;;10.23;3.80;;;;;;;;;;4347579;32;20297;-73
2021/04/23 11:55:59;;;;;;;9.65;3.65;;;;;;;;;;4361194;32;20227;-73
2021/04/23 11:58:25;;;;;;;6.40;3.10;;;;;;;;;;4369522;32;20167;-73
2021/04/23 12:00:55;;;;;;;8.45;3.20;;;;;;;;;;4371878;32;20665;-71
2021/04/23 12:03:21;;;;;;;11.93;4.10;;;;;;;;;;4376269;32;20517;-72
2021/04/23 12:12:52;;;;;;;12.75;3.45;;;;;;;;;;4313052;33;20167;-73
2021/04/23 12:15:50;;;;;;;7.85;3.47;;;;;;;;;;4374301;32;20151;-73
2021/04/23 12:18:16;;;;;;;10.05;3.37;;;;;;;;;;4372644;32;20182;-72
2021/04/23 12:20:49;;;;;;;9.00;3.45;;;;;;;;;;4372906;32;20155;-74
2021/04/23 12:23:16;;;;;;;7.62;3.40;;;;;;;;;;4375896;32;20135;-72
2021/04/23 12:25:51;;;;;;;10.43;3.53;;;;;;;;;;4367133;32;20287;-76
2021/04/23 12:28:17;;;;;;;8.18;2.78;;;;;;;;;;4373675;32;20712;-73
2021/04/23 12:30:42;;;;;;;8.85;2.97;;;;;;;;;;4368943;32;20171;-72
2021/04/23 12:33:08;;;;;;;7.95;3.67;;;;;;;;;;4360623;32;20224;-71
2021/04/23 12:35:37;;;;;;;9.00;3.30;;;;;;;;;;4361584;32;20135;-73
2021/04/23 12:38:04;;;;;;;9.75;3.40;;;;;;;;;;4361293;32;20138;-72
2021/04/23 12:40:30;;;;;;;9.77;3.80;;;;;;;;;;4360228;32;20167;-71
2021/04/23 12:42:56;;;;;;;8.57;3.40;;;;;;;;;;4364930;32;20173;-72
2021/04/23 12:45:21;;;;;;;8.43;3.47;;;;;;;;;;4376062;32;20464;-72
2021/04/23 12:47:48;;;;;;;9.07;3.15;;;;;;;;;;4376012;32;20471;-74
2021/04/23 12:50:13;;;;;;;8.45;3.20;;;;;;;;;;4367929;32;20509;-74
2021/04/23 12:52:41;;;;;;;7.18;2.95;;;;;;;;;;4361097;32;20143;-72
2021/04/23 12:55:07;;;;;;;12.88;3.45;;;;;;;;;;4361400;32;20521;-71
2021/04/23 12:57:35;;;;;;;6.82;2.80;;;;;;;;;;4360674;32;20185;-74
2021/04/23 13:00:01;;;;;;;8.10;2.97;;;;;;;;;;4347060;33;20185;-73
2021/04/23 13:02:28;;;;;;;8.27;2.92;;;;;;;;;;4360758;32;20435;-71
2021/04/23 13:05:08;;;;;;;7.47;3.10;;;;;;;;;;4360476;32;20272;-66
2021/04/23 13:07:51;;;;;;;10.77;3.75;;;;;;;;;;4363089;32;20170;-72
2021/04/23 13:10:22;;;;;;;8.35;2.97;;;;;;;;;;4370562;32;20229;-71
2021/04/23 13:12:56;;;;;;;6.20;3.00;;;;;;;;;;4357215;32;20226;-72
2021/04/23 13:15:26;;;;;;;6.12;2.75;;;;;;;;;;4345781;33;20541;-70
2021/04/23 13:17:53;;;;;;;5.78;3.08;;;;;;;;;;4350482;33;20221;-72
2021/04/23 13:20:22;;;;;;;10.18;3.22;;;;;;;;;;4349970;33;20155;-72
2021/04/23 13:22:55;;;;;;;9.20;3.10;;;;;;;;;;4359073;32;20182;-72
2021/04/23 13:25:26;;;;;;;8.95;3.62;;;;;;;;;;4352044;33;20230;-75
2021/04/23 13:27:53;;;;;;;8.52;3.55;;;;;;;;;;4337019;33;20221;-73
2021/04/23 13:30:26;;;;;;;6.93;3.12;;;;;;;;;;4353435;32;20155;-74
2021/04/23 13:32:56;;;;;;;10.77;3.67;;;;;;;;;;4359753;32;20646;-72
2021/04/23 13:35:47;;;;;;;8.63;3.40;;;;;;;;;;4350799;32;20214;-74
2021/04/23 13:38:17;;;;;;;7.05;3.25;;;;;;;;;;4342094;33;20611;-72
2021/04/23 13:40:42;;;;;;;12.77;3.75;;;;;;;;;;4345498;33;20165;-73
2021/04/23 13:43:09;;;;;;;7.95;3.53;;;;;;;;;;4344805;32;20182;-72
2021/04/23 13:45:34;;;;;;;9.98;3.58;;;;;;;;;;4374015;32;20174;-74
2021/04/23 13:47:59;;;;;;;9.15;3.62;;;;;;;;;;4374223;32;20139;-74
2021/04/23 13:50:24;;;;;;;8.30;3.80;;;;;;;;;;4375408;32;20146;-74
2021/04/23 13:52:50;;;;;;;9.38;4.15;;;;;;;;;;4375225;32;20619;-73
2021/04/23 13:55:18;;;;;;;11.30;3.97;;;;;;;;;;4374567;32;20576;-71
2021/04/23 13:58:00;;;;;;;9.20;4.30;;;;;;;;;;4374625;32;20134;-72
2021/04/23 14:00:25;;;;;;;9.88;3.45;;;;;;;;;;4374267;32;20172;-74
2021/04/23 14:02:57;;;;;;;10.57;4.25;;;;;;;;;;4360902;32;20162;-72
2021/04/23 14:05:23;;;;;;;8.55;3.60;;;;;;;;;;4374313;32;20139;-73
2021/04/23 14:07:51;;;;;;;8.75;4.00;;;;;;;;;;4374209;32;20208;-73
2021/04/23 14:10:16;;;;;;;7.35;3.50;;;;;;;;;;4374654;32;20209;-72
2021/04/23 14:12:42;;;;;;;12.10;3.72;;;;;;;;;;4374341;32;20151;-73
2021/04/23 14:15:07;;;;;;;9.45;4.00;;;;;;;;;;4375004;32;20159;-72
2021/04/23 14:17:33;;;;;;;8.32;4.05;;;;;;;;;;4367409;32;20220;-70
2021/04/23 14:19:58;;;;;;;10.00;4.62;;;;;;;;;;4359737;32;20550;-73
2021/04/23 14:22:24;;;;;;;9.68;3.50;;;;;;;;;;4359540;33;20553;-73
2021/04/23 14:24:49;;;;;;;10.48;4.45;;;;;;;;;;4359868;32;20200;-70
2021/04/23 14:27:15;;;;;;;8.30;3.53;;;;;;;;;;4346043;33;20225;-71
2021/04/23 14:29:44;;;;;;;8.40;3.83;;;;;;;;;;4358292;32;20254;-73
2021/04/23 14:32:09;;;;;;;7.95;3.35;;;;;;;;;;4359295;32;20579;-73
2021/04/23 14:34:34;;;;;;;11.38;3.55;;;;;;;;;;4346226;33;20179;-71
2021/04/23 14:37:03;;;;;;;9.32;3.70;;;;;;;;;;4359645;33;20135;-73
2021/04/23 14:39:29;;;;;;;8.13;3.53;;;;;;;;;;4359421;33;20219;-71
2021/04/23 14:41:54;;;;;;;7.00;3.55;;;;;;;;;;4360917;32;20607;-73
2021/04/23 14:44:20;;;;;;;9.35;3.75;;;;;;;;;;4374236;32;20144;-73
2021/04/23 14:46:45;;;;;;;8.95;4.00;;;;;;;;;;4374909;32;20185;-74
2021/04/23 14:49:11;;;;;;;7.47;3.25;;;;;;;;;;4358214;33;20163;-73
2021/04/23 14:51:39;;;;;;;8.13;3.40;;;;;;;;;;4358629;32;20236;-74
2021/04/23 14:54:05;;;;;;;9.07;3.70;;;;;;;;;;4359410;32;20155;-73
2021/04/23 14:56:30;;;;;;;7.65;3.90;;;;;;;;;;4359649;32;20155;-73
2021/04/23 14:58:58;;;;;;;7.85;3.80;;;;;;;;;;4360271;32;20163;-72
2021/04/23 15:01:23;;;;;;;8.23;3.28;;;;;;;;;;4359434;33;20216;-73
2021/04/23 15:03:49;;;;;;;9.18;3.22;;;;;;;;;;4346149;33;20167;-73
2021/04/23 15:06:18;;;;;;;7.10;3.33;;;;;;;;;;4356963;33;20215;-74
2021/04/23 15:08:48;;;;;;;6.75;3.67;;;;;;;;;;4352997;33;20210;-74
2021/04/23 15:11:13;;;;;;;9.20;4.32;;;;;;;;;;4365887;32;20221;-70
2021/04/23 15:13:39;;;;;;;8.35;3.62;;;;;;;;;;4359686;33;20543;-75
2021/04/23 15:16:05;;;;;;;7.22;3.47;;;;;;;;;;4345251;33;20170;-74
2021/04/23 15:18:30;;;;;;;6.25;3.70;;;;;;;;;;4344011;33;20225;-73
2021/04/23 15:20:55;;;;;;;6.20;3.20;;;;;;;;;;4344237;33;20329;-74
2021/04/23 15:23:21;;;;;;;6.97;3.28;;;;;;;;;;4346157;33;20589;-73
2021/04/23 15:25:51;;;;;;;7.07;3.97;;;;;;;;;;4352116;33;20579;-73
2021/04/23 15:28:17;;;;;;;6.70;3.40;;;;;;;;;;4345665;33;20203;-72
2021/04/23 15:30:42;;;;;;;6.00;3.30;;;;;;;;;;4350551;33;20209;-74
2021/04/23 15:33:09;;;;;;;7.70;3.30;;;;;;;;;;4354867;33;20178;-72
2021/04/23 15:35:35;;;;;;;6.35;3.25;;;;;;;;;;4348647;33;20241;-73
2021/04/23 15:38:03;;;;;;;10.65;3.45;;;;;;;;;;4345126;33;20218;-73
2021/04/23 15:40:28;;;;;;;6.18;3.20;;;;;;;;;;4360136;33;20166;-73
2021/04/23 15:42:54;;;;;;;7.00;3.03;;;;;;;;;;4346113;33;20163;-72
2021/04/23 15:45:30;;;;;;;6.75;3.35;;;;;;;;;;4359511;33;20139;-74
2021/04/23 15:47:57;;;;;;;8.88;3.70;;;;;;;;;;4358658;33;20181;-73
2021/04/23 15:50:23;;;;;;;6.05;3.35;;;;;;;;;;4346411;33;20162;-73
2021/04/23 15:52:49;;;;;;;6.35;3.00;;;;;;;;;;4346266;33;20213;-73
2021/04/23 15:55:15;;;;;;;8.43;3.50;;;;;;;;;;4346194;33;20577;-73
2021/04/23 15:57:41;;;;;;;5.37;2.90;;;;;;;;;;4361627;32;20162;-74
2021/04/23 16:00:09;;;;;;;7.80;3.62;;;;;;;;;;4362216;32;20182;-73
2021/04/23 16:02:34;;;;;;;5.93;3.00;;;;;;;;;;4349014;33;20489;-71
2021/04/23 16:05:00;;;;;;;8.57;3.62;;;;;;;;;;4348779;33;20167;-73
2021/04/23 16:07:25;;;;;;;8.93;2.97;;;;;;;;;;4354513;33;20214;-74
2021/04/23 16:09:50;;;;;;;9.10;3.30;;;;;;;;;;4362012;32;20159;-73
2021/04/23 16:12:16;;;;;;;8.15;3.42;;;;;;;;;;4362147;32;20162;-74
2021/04/23 16:14:41;;;;;;;7.70;3.22;;;;;;;;;;4362006;32;20542;-73
2021/04/23 16:17:06;;;;;;;7.97;3.45;;;;;;;;;;4362541;32;20147;-73
2021/04/23 16:19:31;;;;;;;10.13;3.25;;;;;;;;;;4362086;32;20159;-73
2021/04/23 16:21:57;;;;;;;10.95;3.45;;;;;;;;;;4362525;32;20135;-74
2021/04/23 16:24:22;;;;;;;7.20;3.17;;;;;;;;;;4362195;33;20564;-72
2021/04/23 16:26:47;;;;;;;6.62;3.10;;;;;;;;;;4361674;32;20209;-73
2021/04/23 16:29:12;;;;;;;7.53;3.17;;;;;;;;;;4361755;33;20434;-74